Time;durP1;ratioP1;P1;durP2;ratioP2;P2;SDS_P1;SDS_P2;PMS_P1;PMS_P2;Temp;Humidity;BMP_temperature;BMP_pressure;BME280_temperature;BME280_humidity;BME280_pressure;Samples;Min_cycle;Max_cycle;Signal;HPM_P1;HPM_P2
2022/10/10 00:02:00;;;;;;;9.40;4.20;;;;;;;9.56;75.64;101382.47;5256162;28;20724;-71
2022/10/10 00:04:31;;;;;;;8.80;3.93;;;;;;;9.62;74.69;101386.53;5243414;28;20496;-71
2022/10/10 00:07:03;;;;;;;7.00;4.13;;;;;;;9.60;75.01;101383.16;5237581;28;20104;-72
2022/10/10 00:09:34;;;;;;;7.77;3.70;;;;;;;9.65;74.89;101373.34;5237778;28;20075;-71
2022/10/10 00:12:05;;;;;;;7.47;4.07;;;;;;;9.52;76.09;101376.53;5236368;28;20084;-72
2022/10/10 00:14:37;;;;;;;8.37;3.20;;;;;;;9.42;76.28;101372.66;5252541;28;20124;-71
2022/10/10 00:17:08;;;;;;;9.80;3.67;;;;;;;9.63;75.35;101369.94;5238887;28;20037;-71
2022/10/10 00:19:39;;;;;;;6.67;4.20;;;;;;;9.43;76.90;101364.72;5236096;28;20021;-72
2022/10/10 00:22:10;;;;;;;6.10;3.57;;;;;;;9.72;75.70;101366.03;5237126;28;20036;-71
2022/10/10 00:24:42;;;;;;;6.73;4.37;;;;;;;9.65;76.20;101366.31;5236031;28;20129;-71
2022/10/10 00:27:13;;;;;;;12.83;4.40;;;;;;;9.57;76.54;101363.22;5256101;28;20372;-71
2022/10/10 00:29:44;;;;;;;10.80;5.67;;;;;;;9.73;75.80;101362.50;5260675;28;20601;-71
2022/10/10 00:32:16;;;;;;;8.00;4.40;;;;;;;9.83;75.44;101363.75;5252368;28;20037;-72
2022/10/10 00:34:47;;;;;;;8.03;4.27;;;;;;;9.55;76.63;101370.28;5235979;28;20053;-71
2022/10/10 00:37:18;;;;;;;10.50;4.33;;;;;;;9.54;76.93;101358.16;5236799;28;20041;-71
2022/10/10 00:39:49;;;;;;;8.50;4.53;;;;;;;9.44;77.84;101357.75;5236714;28;20068;-71
2022/10/10 00:42:21;;;;;;;8.13;4.83;;;;;;;9.49;77.74;101354.91;5245701;28;20098;-71
2022/10/10 00:45:40;;;;;;;10.17;4.43;;;;;;;9.74;76.15;101353.75;5246097;28;20051;-72
2022/10/10 00:48:15;;;;;;;11.27;4.70;;;;;;;9.76;76.55;101351.88;5252932;28;20040;-71
2022/10/10 00:50:55;;;;;;;6.90;4.10;;;;;;;9.67;76.96;101348.78;5247506;28;21335;-72
2022/10/10 00:53:31;;;;;;;8.53;4.80;;;;;;;9.82;75.71;101351.59;5246321;28;20119;-72
2022/10/10 00:56:03;;;;;;;8.23;4.57;;;;;;;9.74;76.32;101349.34;5245052;28;20365;-72
2022/10/10 00:58:38;;;;;;;10.10;5.10;;;;;;;9.82;75.71;101346.38;5247598;28;21271;-72
2022/10/10 01:01:09;;;;;;;10.50;4.60;;;;;;;9.75;76.39;101340.59;5246914;28;20448;-72
2022/10/10 01:03:41;;;;;;;7.90;4.97;;;;;;;9.68;76.68;101339.19;5286285;22;20118;-73
2022/10/10 01:06:12;;;;;;;11.93;4.90;;;;;;;9.56;77.15;101340.63;5245996;28;20475;-72
2022/10/10 01:08:44;;;;;;;8.53;4.60;;;;;;;9.66;76.75;101339.25;5243559;28;20043;-72
2022/10/10 01:11:28;;;;;;;6.20;4.13;;;;;;;9.51;78.01;101332.97;5243660;28;20045;-72
2022/10/10 01:14:08;;;;;;;6.70;4.57;;;;;;;9.67;77.17;101343.56;5242280;28;20035;-72
2022/10/10 01:16:57;;;;;;;11.57;5.47;;;;;;;9.30;79.20;101327.00;5245440;28;20040;-72
2022/10/10 01:19:58;;;;;;;8.10;4.80;;;;;;;9.35;79.72;101337.25;5244825;28;20067;-72
2022/10/10 01:22:57;;;;;;;7.97;4.77;;;;;;;9.51;78.44;101342.59;5243729;28;20120;-72
2022/10/10 01:26:06;;;;;;;5.77;4.40;;;;;;;9.49;78.65;101339.22;5243022;28;20048;-72
2022/10/10 01:29:02;;;;;;;7.10;4.53;;;;;;;9.41;79.38;101343.03;5243684;28;20171;-72
2022/10/10 01:31:38;;;;;;;10.07;5.33;;;;;;;9.32;80.07;101339.06;5242811;28;20041;-72
2022/10/10 01:34:28;;;;;;;8.10;5.27;;;;;;;9.36;79.64;101337.16;5243721;28;20047;-72
2022/10/10 01:37:18;;;;;;;10.77;4.90;;;;;;;9.42;78.37;101321.22;5241555;28;20045;-72
2022/10/10 01:39:56;;;;;;;9.17;4.87;;;;;;;9.49;78.78;101321.75;5244874;28;20658;-72
2022/10/10 01:42:55;;;;;;;7.37;5.00;;;;;;;9.47;79.28;101326.22;5243876;28;20120;-71
2022/10/10 01:45:27;;;;;;;7.03;4.93;;;;;;;9.34;79.94;101318.09;5240001;28;20072;-72
2022/10/10 01:48:02;;;;;;;7.57;4.67;;;;;;;9.42;79.10;101320.34;5243377;28;20474;-72
2022/10/10 01:50:55;;;;;;;8.27;4.70;;;;;;;9.42;79.29;101315.13;5245102;28;20029;-72
2022/10/10 01:53:42;;;;;;;9.83;4.37;;;;;;;9.41;79.50;101318.66;5244535;28;20151;-72
2022/10/10 01:56:30;;;;;;;9.43;5.10;;;;;;;9.52;78.66;101319.00;5242811;28;20032;-72
2022/10/10 01:59:23;;;;;;;7.40;4.93;;;;;;;9.53;78.42;101319.84;5244510;28;20029;-72
2022/10/10 02:02:05;;;;;;;8.63;4.80;;;;;;;9.40;79.06;101304.75;5244281;28;20032;-71
2022/10/10 02:04:52;;;;;;;9.37;4.93;;;;;;;9.47;78.91;101307.06;5244937;28;20616;-71
2022/10/10 02:07:33;;;;;;;5.97;4.27;;;;;;;9.44;79.01;101311.50;5244368;28;20037;-72
2022/10/10 02:10:07;;;;;;;8.13;5.20;;;;;;;9.21;80.35;101296.94;5243484;28;20029;-71
2022/10/10 02:12:39;;;;;;;11.48;5.10;;;;;;;9.15;80.89;101300.66;5248849;28;20040;-71
2022/10/10 02:15:18;;;;;;;7.13;4.93;;;;;;;9.30;80.41;101300.88;5249706;28;20036;-70
2022/10/10 02:17:51;;;;;;;12.80;4.77;;;;;;;9.32;79.82;101299.88;5249725;28;20063;-72
2022/10/10 02:20:26;;;;;;;10.67;5.37;;;;;;;9.13;81.19;101299.06;5248859;28;21277;-72
2022/10/10 02:22:58;;;;;;;9.57;5.60;;;;;;;9.22;80.66;101295.13;5248007;28;20031;-71
2022/10/10 02:25:35;;;;;;;10.27;5.33;;;;;;;9.17;81.10;101288.38;5247479;28;20041;-72
2022/10/10 02:28:15;;;;;;;10.63;5.70;;;;;;;9.10;82.14;101292.19;5247268;28;20044;-72
2022/10/10 02:30:49;;;;;;;8.50;5.10;;;;;;;9.10;81.57;101284.34;5248914;28;20039;-72
2022/10/10 02:33:30;;;;;;;7.07;4.65;;;;;;;8.94;82.60;101285.06;5248483;28;20427;-71
2022/10/10 02:36:03;;;;;;;10.23;5.83;;;;;;;8.82;83.71;101293.44;5248200;28;20048;-71
2022/10/10 02:38:35;;;;;;;9.03;4.77;;;;;;;8.92;83.38;101284.28;5248147;28;20112;-72
2022/10/10 02:41:10;;;;;;;7.07;5.10;;;;;;;9.09;82.34;101274.84;5246578;28;20537;-72
2022/10/10 02:43:41;;;;;;;12.87;6.03;;;;;;;8.71;84.51;101263.44;5255045;28;20103;-71
2022/10/10 02:46:13;;;;;;;9.07;5.40;;;;;;;8.88;84.51;101274.91;5258724;28;20114;-72
2022/10/10 02:48:44;;;;;;;7.20;5.33;;;;;;;8.70;86.28;101266.13;5251521;28;20083;-71
2022/10/10 02:51:16;;;;;;;9.70;5.20;;;;;;;8.94;84.53;101256.31;5237488;28;20032;-72
2022/10/10 02:53:48;;;;;;;5.83;4.27;;;;;;;8.87;85.12;101265.34;5238851;28;20040;-71
2022/10/10 02:56:19;;;;;;;10.80;5.53;;;;;;;8.78;86.43;101265.81;5238775;28;20128;-72
2022/10/10 02:58:50;;;;;;;10.47;5.87;;;;;;;8.75;86.65;101272.00;5238886;28;20112;-71
2022/10/10 03:01:22;;;;;;;9.13;5.10;;;;;;;8.75;87.17;101266.78;5237943;28;20029;-72
2022/10/10 03:03:53;;;;;;;10.67;5.63;;;;;;;8.66;87.77;101262.81;5237853;28;20041;-72
2022/10/10 03:06:25;;;;;;;10.67;4.57;;;;;;;8.80;86.37;101248.25;5247192;28;20483;-72
2022/10/10 03:08:56;;;;;;;8.87;4.67;;;;;;;8.62;87.95;101244.75;5258342;28;20025;-72
2022/10/10 03:11:27;;;;;;;8.13;4.93;;;;;;;8.77;87.71;101251.03;5258320;28;20041;-72
2022/10/10 03:13:59;;;;;;;10.87;5.10;;;;;;;8.83;87.48;101253.38;5258891;28;20040;-72
2022/10/10 03:16:30;;;;;;;12.10;5.00;;;;;;;8.79;87.14;101247.44;5257193;28;20564;-71
2022/10/10 03:19:02;;;;;;;9.60;5.27;;;;;;;8.73;88.21;101244.28;5252524;28;20033;-72
2022/10/10 03:21:34;;;;;;;9.33;4.93;;;;;;;8.74;88.30;101251.16;5253187;28;20445;-72
2022/10/10 03:24:06;;;;;;;9.17;4.77;;;;;;;8.78;87.74;101244.91;5236133;28;20392;-71
2022/10/10 03:26:37;;;;;;;6.97;4.63;;;;;;;8.73;88.54;101236.44;5237336;28;20033;-72
2022/10/10 03:29:08;;;;;;;9.90;4.67;;;;;;;8.75;88.59;101242.41;5237491;28;20037;-71
2022/10/10 03:31:40;;;;;;;10.13;5.17;;;;;;;8.73;88.99;101250.31;5252146;28;20079;-71
2022/10/10 03:34:11;;;;;;;10.57;4.70;;;;;;;8.69;88.95;101233.94;5240128;28;20468;-72
2022/10/10 03:36:42;;;;;;;10.43;4.47;;;;;;;8.65;90.23;101250.69;5237609;28;20030;-71
2022/10/10 03:39:13;;;;;;;7.37;5.13;;;;;;;8.71;91.01;101255.63;5237726;28;20111;-70
2022/10/10 03:41:45;;;;;;;9.80;5.20;;;;;;;8.73;91.37;101257.31;5241038;28;20127;-72
2022/10/10 03:44:16;;;;;;;8.23;5.43;;;;;;;8.72;91.06;101256.47;5237792;28;20045;-71
2022/10/10 03:46:47;;;;;;;10.37;4.37;;;;;;;8.66;91.15;101254.97;5239960;28;20037;-71
2022/10/10 03:49:19;;;;;;;9.17;5.00;;;;;;;8.67;92.02;101266.28;5237433;28;20033;-72
2022/10/10 03:51:50;;;;;;;7.60;5.10;;;;;;;8.58;92.29;101238.81;5251866;28;20083;-72
2022/10/10 03:54:21;;;;;;;11.30;5.23;;;;;;;8.77;91.80;101254.50;5255700;28;20033;-73
2022/10/10 03:56:52;;;;;;;10.43;4.47;;;;;;;8.76;91.82;101250.16;5246314;28;20040;-72
2022/10/10 03:59:24;;;;;;;8.30;4.50;;;;;;;8.54;94.23;101243.28;5237700;28;20025;-71
2022/10/10 04:01:55;;;;;;;15.33;5.33;;;;;;;8.71;93.64;101245.16;5238336;28;20391;-71
2022/10/10 04:04:26;;;;;;;7.27;4.60;;;;;;;8.74;93.60;101256.41;5236930;28;20044;-71
2022/10/10 04:06:57;;;;;;;7.83;4.20;;;;;;;8.74;93.81;101246.81;5249857;28;20131;-72
2022/10/10 04:09:29;;;;;;;21.17;5.60;;;;;;;8.56;98.21;101248.47;5257293;28;20031;-72
2022/10/10 04:12:00;;;;;;;8.47;4.77;;;;;;;8.59;98.41;101254.41;5255266;28;20036;-71
2022/10/10 04:14:31;;;;;;;9.07;4.80;;;;;;;8.62;97.80;101239.53;5258049;28;20100;-72
2022/10/10 04:17:03;;;;;;;10.80;5.60;;;;;;;8.66;97.93;101249.75;5256894;28;20112;-71
2022/10/10 04:19:34;;;;;;;10.73;5.00;;;;;;;8.45;99.17;101256.75;5252863;28;20079;-71
2022/10/10 04:22:05;;;;;;;7.60;4.83;;;;;;;8.43;100.00;101254.19;5237067;28;20056;-71
2022/10/10 04:24:37;;;;;;;7.60;5.67;;;;;;;8.26;100.00;101248.88;5251068;28;20043;-72
2022/10/10 04:27:09;;;;;;;11.13;4.90;;;;;;;8.42;100.00;101247.31;5255352;28;20021;-71
2022/10/10 04:29:40;;;;;;;8.40;4.73;;;;;;;8.24;100.00;101241.13;5257123;28;20048;-72
2022/10/10 04:32:11;;;;;;;20.17;5.60;;;;;;;8.38;100.00;101250.94;5256641;28;20041;-71
2022/10/10 04:34:42;;;;;;;7.80;4.43;;;;;;;8.41;100.00;101250.81;5256522;28;20033;-71
2022/10/10 04:37:14;;;;;;;10.03;5.73;;;;;;;8.38;100.00;101252.72;5256630;28;20036;-72
2022/10/10 04:39:45;;;;;;;8.30;4.90;;;;;;;8.32;100.00;101251.22;5255528;28;20108;-72
2022/10/10 04:42:16;;;;;;;9.93;5.27;;;;;;;8.29;100.00;101241.75;5244358;28;20055;-72
2022/10/10 04:44:47;;;;;;;11.13;5.23;;;;;;;8.27;100.00;101246.22;5256413;28;20029;-71
2022/10/10 04:47:19;;;;;;;7.77;4.20;;;;;;;8.27;100.00;101240.16;5255661;28;20025;-71
2022/10/10 04:49:50;;;;;;;7.97;4.83;;;;;;;8.20;100.00;101234.34;5256368;28;20082;-71
2022/10/10 04:52:21;;;;;;;6.57;4.47;;;;;;;7.93;100.00;101222.44;5254387;28;20037;-72
2022/10/10 04:54:53;;;;;;;10.80;5.23;;;;;;;8.28;100.00;101247.06;5255910;28;20024;-72
2022/10/10 04:57:24;;;;;;;9.73;4.60;;;;;;;8.30;100.00;101237.41;5256415;28;20051;-72
2022/10/10 04:59:55;;;;;;;7.60;4.23;;;;;;;8.28;100.00;101241.81;5256554;28;20091;-72
2022/10/10 05:02:26;;;;;;;8.37;4.43;;;;;;;8.25;100.00;101244.56;5237049;28;20033;-72
2022/10/10 05:04:58;;;;;;;8.83;5.17;;;;;;;8.18;100.00;101238.78;5235747;28;20060;-72
2022/10/10 05:07:29;;;;;;;9.60;4.67;;;;;;;8.29;100.00;101236.53;5235781;28;20034;-71
2022/10/10 05:10:01;;;;;;;7.87;4.67;;;;;;;8.22;100.00;101238.56;5235923;28;20013;-72
2022/10/10 05:12:32;;;;;;;7.73;4.83;;;;;;;8.02;100.00;101225.53;5253862;28;20029;-72
2022/10/10 05:15:04;;;;;;;6.67;4.20;;;;;;;8.24;100.00;101233.28;5255452;28;20396;-72
2022/10/10 05:17:35;;;;;;;6.93;4.73;;;;;;;8.24;100.00;101238.50;5256652;28;20029;-72
2022/10/10 05:20:07;;;;;;;8.80;4.83;;;;;;;8.13;100.00;101233.78;5254548;28;20399;-71
2022/10/10 05:22:38;;;;;;;12.80;5.50;;;;;;;8.11;100.00;101235.59;5244287;28;20040;-71
2022/10/10 05:25:10;;;;;;;7.60;4.60;;;;;;;8.21;100.00;101231.66;5255330;28;20047;-71
2022/10/10 05:27:41;;;;;;;10.67;4.90;;;;;;;8.18;100.00;101225.75;5255380;28;20070;-72
2022/10/10 05:30:13;;;;;;;9.70;5.13;;;;;;;8.22;100.00;101232.53;5249268;28;20035;-72
2022/10/10 05:32:44;;;;;;;8.73;4.60;;;;;;;8.07;100.00;101234.03;5243511;28;20140;-72
2022/10/10 05:35:16;;;;;;;11.43;5.30;;;;;;;8.30;100.00;101235.66;5234992;28;20060;-72
2022/10/10 05:37:47;;;;;;;7.67;4.57;;;;;;;8.23;100.00;101245.50;5240681;28;20099;-72
2022/10/10 05:40:19;;;;;;;10.80;4.70;;;;;;;8.29;100.00;101244.38;5239280;28;20283;-73
2022/10/10 05:42:50;;;;;;;12.70;5.47;;;;;;;8.13;100.00;101240.75;5247058;28;20025;-71
2022/10/10 05:45:21;;;;;;;14.90;5.90;;;;;;;8.31;100.00;101246.91;5257704;28;20033;-73
2022/10/10 05:47:52;;;;;;;7.87;4.97;;;;;;;8.19;100.00;101233.50;5255096;28;20029;-72
2022/10/10 05:50:28;;;;;;;9.30;4.90;;;;;;;8.22;100.00;101245.56;5238191;28;20025;-72
2022/10/10 05:52:59;;;;;;;11.00;5.17;;;;;;;8.18;100.00;101239.63;5255351;28;20025;-71
2022/10/10 05:55:31;;;;;;;12.73;5.40;;;;;;;8.13;100.00;101241.59;5254095;28;20033;-72
2022/10/10 05:58:03;;;;;;;7.73;5.03;;;;;;;8.20;100.00;101243.00;5254071;28;20260;-71
2022/10/10 06:00:35;;;;;;;9.60;5.17;;;;;;;8.13;100.00;101239.00;5235148;28;20116;-71
2022/10/10 06:03:07;;;;;;;12.07;5.53;;;;;;;8.11;100.00;101233.00;5246344;28;20400;-72
2022/10/10 06:05:39;;;;;;;10.93;6.43;;;;;;;8.26;100.00;101248.88;5249226;28;20036;-72
2022/10/10 06:08:11;;;;;;;13.57;6.17;;;;;;;8.23;100.00;101245.50;5236420;28;20807;-72
2022/10/10 06:10:44;;;;;;;14.60;6.20;;;;;;;8.07;100.00;101245.31;5235346;28;20034;-72
2022/10/10 06:13:17;;;;;;;15.40;7.63;;;;;;;8.29;100.00;101243.53;5251776;28;20128;-69
2022/10/10 06:15:51;;;;;;;14.17;7.70;;;;;;;8.11;100.00;101249.50;5247350;28;20078;-70
2022/10/10 06:18:23;;;;;;;14.57;6.80;;;;;;;8.10;100.00;101233.88;5245340;28;20043;-70
2022/10/10 06:20:54;;;;;;;12.27;6.93;;;;;;;8.30;100.00;101255.66;5245071;28;20108;-70
2022/10/10 06:23:27;;;;;;;11.50;6.23;;;;;;;8.14;100.00;101243.28;5249023;28;20073;-72
2022/10/10 06:25:59;;;;;;;12.70;6.93;;;;;;;8.22;100.00;101251.63;5248172;28;20472;-71
2022/10/10 06:28:30;;;;;;;10.40;5.80;;;;;;;8.28;100.00;101252.25;5246126;28;20040;-71
2022/10/10 06:31:04;;;;;;;11.10;6.70;;;;;;;8.32;100.00;101253.84;5248004;28;20021;-70
2022/10/10 06:33:36;;;;;;;9.68;6.28;;;;;;;8.33;100.00;101245.94;5249438;28;20060;-71
2022/10/10 06:36:07;;;;;;;12.67;6.53;;;;;;;8.37;100.00;101257.09;5237744;28;20168;-71
2022/10/10 06:38:41;;;;;;;12.30;5.80;;;;;;;8.30;100.00;101256.53;5232035;28;20545;-71
2022/10/10 06:41:12;;;;;;;18.17;6.17;;;;;;;8.40;100.00;101258.72;5236465;28;20025;-71
2022/10/10 06:43:44;;;;;;;12.40;6.20;;;;;;;8.29;100.00;101253.97;5241638;28;20036;-72
2022/10/10 06:46:15;;;;;;;13.07;7.20;;;;;;;8.39;100.00;101260.50;5243408;28;20131;-72
2022/10/10 06:48:46;;;;;;;14.03;6.60;;;;;;;8.27;100.00;101255.81;5236144;28;20091;-70
2022/10/10 06:51:17;;;;;;;14.83;6.47;;;;;;;8.37;100.00;101269.28;5239440;28;20068;-71
2022/10/10 06:53:49;;;;;;;10.47;5.80;;;;;;;8.46;100.00;101277.59;5238083;28;20075;-70
2022/10/10 06:56:20;;;;;;;15.63;8.00;;;;;;;8.47;100.00;101274.03;5240423;28;20692;-70
2022/10/10 06:58:51;;;;;;;12.03;7.10;;;;;;;8.53;100.00;101269.47;5239431;28;20771;-75
2022/10/10 07:01:24;;;;;;;13.00;7.40;;;;;;;8.55;100.00;101278.09;5246534;28;20029;-74
2022/10/10 07:03:55;;;;;;;12.97;7.00;;;;;;;8.59;100.00;101271.81;5244586;28;20513;-72
2022/10/10 07:06:27;;;;;;;15.80;7.13;;;;;;;8.64;100.00;101275.09;5245998;28;20032;-75
2022/10/10 07:08:58;;;;;;;8.53;6.40;;;;;;;8.61;100.00;101270.00;5244045;28;20037;-69
2022/10/10 07:11:29;;;;;;;12.53;6.73;;;;;;;8.73;100.00;101276.44;5245064;28;20570;-70
2022/10/10 07:14:01;;;;;;;16.07;5.97;;;;;;;8.76;100.00;101278.06;5245015;28;20395;-68
2022/10/10 07:16:32;;;;;;;12.73;6.30;;;;;;;8.85;100.00;101282.84;5244967;28;20048;-71
2022/10/10 07:19:04;;;;;;;15.23;8.00;;;;;;;8.91;100.00;101281.75;5246709;28;20021;-72
2022/10/10 07:21:35;;;;;;;14.10;6.43;;;;;;;8.99;100.00;101282.22;5254832;28;20029;-72
2022/10/10 07:24:06;;;;;;;18.47;6.60;;;;;;;9.03;100.00;101275.09;5252521;28;20013;-71
2022/10/10 07:26:38;;;;;;;13.93;5.70;;;;;;;9.15;100.00;101284.97;5254736;28;20552;-73
2022/10/10 07:29:09;;;;;;;14.03;6.17;;;;;;;9.26;100.00;101281.88;5252465;28;20102;-72
2022/10/10 07:31:40;;;;;;;14.57;6.50;;;;;;;9.46;100.00;101285.28;5255964;28;20029;-71
2022/10/10 07:34:12;;;;;;;26.47;7.40;;;;;;;9.60;100.00;101279.38;5255227;28;20021;-71
2022/10/10 07:36:47;;;;;;;14.60;6.10;;;;;;;9.75;100.00;101282.19;5255623;28;20880;-72
2022/10/10 07:39:20;;;;;;;15.20;6.63;;;;;;;9.99;100.00;101290.59;5251980;28;20029;-72
2022/10/10 07:41:52;;;;;;;13.07;6.37;;;;;;;10.11;100.00;101291.72;5249078;28;20025;-73
2022/10/10 07:44:23;;;;;;;13.37;5.63;;;;;;;10.29;100.00;101296.94;5254985;28;20025;-73
2022/10/10 07:46:54;;;;;;;11.37;5.83;;;;;;;10.36;100.00;101292.25;5254410;28;20419;-72
2022/10/10 07:49:26;;;;;;;14.47;6.40;;;;;;;10.50;100.00;101289.78;5252620;28;20102;-72
2022/10/10 07:51:57;;;;;;;11.50;6.10;;;;;;;10.69;100.00;101298.44;5254870;28;20044;-72
2022/10/10 07:54:29;;;;;;;12.77;5.83;;;;;;;10.77;100.00;101306.72;5251701;28;20021;-72
2022/10/10 07:57:00;;;;;;;12.73;5.73;;;;;;;10.85;100.00;101309.81;5255859;28;20025;-72
2022/10/10 07:59:32;;;;;;;16.03;6.20;;;;;;;10.88;100.00;101304.41;5256517;28;20391;-72
2022/10/10 08:02:03;;;;;;;15.10;5.40;;;;;;;11.06;100.00;101303.47;5254443;28;20362;-71
2022/10/10 08:04:35;;;;;;;14.50;6.30;;;;;;;11.42;100.00;101317.25;5255576;28;20083;-72
2022/10/10 08:07:06;;;;;;;11.10;5.43;;;;;;;11.72;100.00;101324.31;5255398;28;20028;-72
2022/10/10 08:09:37;;;;;;;11.77;6.23;;;;;;;12.35;100.00;101321.63;5251894;28;20021;-72
2022/10/10 08:12:08;;;;;;;12.50;5.53;;;;;;;13.18;100.00;101317.44;5255499;28;20090;-72
2022/10/10 08:14:40;;;;;;;12.53;5.20;;;;;;;13.78;100.00;101311.91;5253764;28;20024;-72
2022/10/10 08:17:11;;;;;;;11.97;5.47;;;;;;;14.61;100.00;101313.44;5255472;28;20040;-72
2022/10/10 08:19:42;;;;;;;11.80;4.57;;;;;;;15.40;97.66;101309.69;5253190;28;20042;-71
2022/10/10 08:22:14;;;;;;;6.27;4.07;;;;;;;16.97;88.23;101300.56;5253434;28;20059;-71
2022/10/10 08:24:45;;;;;;;11.47;4.27;;;;;;;17.07;79.53;101306.00;5253919;28;20086;-71
2022/10/10 08:27:18;;;;;;;9.57;3.70;;;;;;;17.85;78.09;101308.50;5254867;28;20476;-72
2022/10/10 08:29:49;;;;;;;9.60;4.10;;;;;;;17.48;77.87;101311.53;5253243;28;20094;-72
2022/10/10 08:32:20;;;;;;;10.37;3.90;;;;;;;16.75;80.33;101300.50;5254887;28;20033;-72
2022/10/10 08:34:52;;;;;;;9.90;3.97;;;;;;;16.12;84.00;101322.94;5254663;28;20032;-72
2022/10/10 08:37:24;;;;;;;10.20;3.90;;;;;;;15.97;85.71;101317.81;5253693;28;20060;-72
2022/10/10 08:39:55;;;;;;;14.63;4.50;;;;;;;15.95;86.29;101329.47;5249881;28;20434;-72
2022/10/10 08:42:35;;;;;;;8.93;3.67;;;;;;;16.89;84.86;101315.28;5254856;28;20049;-71
2022/10/10 08:45:14;;;;;;;8.83;4.20;;;;;;;18.01;79.04;101312.50;5253111;28;20037;-72
2022/10/10 08:48:04;;;;;;;5.70;3.47;;;;;;;18.88;75.03;101300.78;5255037;28;20533;-71
2022/10/10 08:50:50;;;;;;;7.37;3.30;;;;;;;19.46;72.80;101315.16;5249210;28;20740;-72
2022/10/10 08:53:21;;;;;;;9.53;3.90;;;;;;;19.43;57.79;101318.91;5251829;28;20111;-72
2022/10/10 08:55:54;;;;;;;8.47;3.37;;;;;;;20.66;55.53;101324.56;5252646;28;20117;-72
2022/10/10 08:58:35;;;;;;;8.53;3.50;;;;;;;21.27;54.85;101314.28;5249484;28;20082;-72
2022/10/10 09:01:17;;;;;;;12.43;3.72;;;;;;;22.09;52.07;101298.28;5249688;28;20488;-72
2022/10/10 09:03:54;;;;;;;10.93;3.05;;;;;;;22.93;49.82;101318.19;5255476;28;20040;-72
2022/10/10 09:06:55;;;;;;;10.15;5.07;;;;;;;23.99;50.83;101322.94;5255360;28;20443;-72
2022/10/10 09:09:51;;;;;;;6.88;2.90;;;;;;;23.82;49.52;101324.81;5251595;28;20484;-72
2022/10/10 09:12:31;;;;;;;7.50;3.17;;;;;;;23.69;48.33;101326.16;5253953;28;20040;-73
2022/10/10 09:15:19;;;;;;;8.85;3.72;;;;;;;23.24;47.03;101328.28;5254116;28;20025;-72
2022/10/10 09:18:01;;;;;;;7.35;3.20;;;;;;;23.05;46.86;101332.06;5254125;28;20391;-72
2022/10/10 09:20:59;;;;;;;7.65;2.95;;;;;;;22.13;47.97;101331.66;5252916;28;20400;-72
2022/10/10 09:23:52;;;;;;;9.98;3.92;;;;;;;22.48;49.53;101337.03;5247835;28;20445;-72
2022/10/10 09:26:38;;;;;;;11.13;3.60;;;;;;;22.87;48.07;101337.50;5253829;28;20029;-72
2022/10/10 09:29:34;;;;;;;12.63;3.15;;;;;;;22.48;47.92;101340.50;5250938;28;20112;-72
2022/10/10 09:32:13;;;;;;;8.45;3.35;;;;;;;22.09;48.80;101346.28;5254877;28;20364;-73
2022/10/10 09:34:49;;;;;;;12.00;3.38;;;;;;;21.81;51.05;101349.06;5254916;28;20083;-73
2022/10/10 09:37:28;;;;;;;8.52;3.20;;;;;;;22.35;48.25;101348.13;5253517;28;20029;-72
2022/10/10 09:40:28;;;;;;;8.23;2.92;;;;;;;22.39;50.51;101356.63;5249012;28;20490;-72
2022/10/10 09:43:11;;;;;;;13.98;4.72;;;;;;;22.41;49.47;101362.66;5253363;28;20049;-72
2022/10/10 09:45:51;;;;;;;7.28;3.92;;;;;;;22.76;47.78;101352.81;5255108;28;20054;-72
2022/10/10 09:48:32;;;;;;;10.90;3.80;;;;;;;22.37;48.19;101356.81;5253799;28;20102;-72
2022/10/10 09:51:07;;;;;;;11.65;4.20;;;;;;;21.52;49.41;101351.81;5253702;28;20112;-73
2022/10/10 09:53:40;;;;;;;9.38;3.53;;;;;;;21.25;50.19;101353.56;5252885;28;20357;-72
2022/10/10 09:56:18;;;;;;;9.38;3.28;;;;;;;20.98;51.31;101365.91;5252281;28;20476;-72
2022/10/10 09:58:52;;;;;;;9.13;3.85;;;;;;;20.38;52.72;101367.94;5251201;28;20565;-72
2022/10/10 10:01:27;;;;;;;13.93;3.70;;;;;;;20.04;53.12;101374.56;5253711;28;20360;-73
2022/10/10 10:04:06;;;;;;;12.68;4.22;;;;;;;20.03;54.01;101378.19;5253543;28;20048;-73
2022/10/10 10:06:38;;;;;;;16.17;3.90;;;;;;;19.47;56.58;101369.94;5237249;28;20045;-72
2022/10/10 10:09:14;;;;;;;13.27;4.00;;;;;;;19.33;56.49;101372.03;5249040;28;20025;-72
2022/10/10 10:11:52;;;;;;;19.67;4.23;;;;;;;19.21;56.37;101373.09;5252270;28;20033;-73
2022/10/10 10:14:35;;;;;;;48.97;5.40;;;;;;;18.68;57.57;101367.03;5253429;28;20021;-71
2022/10/10 10:17:13;;;;;;;33.97;5.20;;;;;;;18.96;56.95;101362.81;5254680;28;20434;-71
2022/10/10 10:19:46;;;;;;;14.50;5.33;;;;;;;18.63;58.62;101370.06;5236928;28;20484;-71
2022/10/10 10:22:36;;;;;;;8.90;3.77;;;;;;;18.83;57.51;101370.19;5254663;28;20029;-72
2022/10/10 10:25:34;;;;;;;12.80;4.07;;;;;;;18.89;58.51;101374.09;5248535;28;20025;-73
2022/10/10 10:28:09;;;;;;;12.90;3.97;;;;;;;18.55;60.18;101373.41;5253394;28;20037;-71
2022/10/10 10:30:41;;;;;;;;;;;;;;;19.24;57.82;101375.47;5252924;28;20654;-71
2022/10/10 10:33:38;;;;;;;13.40;4.00;;;;;;;19.00;58.66;101368.69;5253141;28;19975;-72
2022/10/10 10:36:09;;;;;;;9.80;4.50;;;;;;;18.85;60.15;101379.66;5249269;28;20143;-72
2022/10/10 10:38:51;;;;;;;10.50;3.87;;;;;;;19.02;59.19;101380.03;5253991;28;20120;-72
2022/10/10 10:41:37;;;;;;;11.47;4.17;;;;;;;19.22;58.58;101391.56;5251819;28;20025;-72
2022/10/10 10:44:44;;;;;;;9.67;4.07;;;;;;;19.37;58.01;101385.00;5254803;28;20075;-71
2022/10/10 10:47:43;;;;;;;13.90;3.93;;;;;;;19.21;58.51;101384.56;5254623;28;20076;-72
2022/10/10 10:50:29;;;;;;;7.17;4.10;;;;;;;19.32;58.08;101396.88;5247798;28;20068;-70
2022/10/10 10:53:37;;;;;;;10.00;4.20;;;;;;;19.14;57.85;101398.50;5248430;28;20017;-70
2022/10/10 10:56:37;;;;;;;12.80;4.47;;;;;;;19.29;58.20;101405.13;5254007;28;20041;-70
2022/10/10 10:59:24;;;;;;;11.00;4.53;;;;;;;19.13;58.43;101407.47;5258652;28;20113;-70
2022/10/10 11:02:20;;;;;;;16.60;3.97;;;;;;;19.23;58.76;101400.38;5247446;28;20135;-72
2022/10/10 11:05:02;;;;;;;13.40;4.00;;;;;;;19.31;57.98;101404.97;5249122;28;20056;-73
2022/10/10 11:07:47;;;;;;;7.83;3.57;;;;;;;19.24;59.03;101412.66;5258243;28;20118;-72
2022/10/10 11:10:44;;;;;;;15.20;4.43;;;;;;;19.26;57.55;101413.38;5254002;28;20037;-73
2022/10/10 11:13:56;;;;;;;16.47;4.17;;;;;;;19.16;58.79;101415.16;5257673;28;20484;-71
2022/10/10 11:16:36;;;;;;;13.17;4.70;;;;;;;19.32;58.58;101412.81;5254728;28;20037;-73
2022/10/10 11:19:10;;;;;;;16.43;4.87;;;;;;;19.38;58.86;101423.88;5255440;28;20139;-71
2022/10/10 11:22:04;;;;;;;;;;;;;;;19.61;58.75;101421.81;5257493;28;20081;-71
2022/10/10 11:24:43;;;;;;;11.67;4.07;;;;;;;19.27;58.58;101415.03;5239267;28;19913;-73
2022/10/10 11:27:23;;;;;;;14.07;4.17;;;;;;;19.39;58.71;101429.03;5258463;28;20036;-72
2022/10/10 11:30:06;;;;;;;17.03;4.60;;;;;;;19.06;60.50;101426.53;5258212;28;20025;-72
2022/10/10 11:32:49;;;;;;;8.43;3.80;;;;;;;19.32;58.24;101418.13;5250293;28;20036;-72
2022/10/10 11:35:29;;;;;;;12.63;3.80;;;;;;;19.34;58.83;101418.84;5257880;28;20033;-72
2022/10/10 11:38:11;;;;;;;16.10;4.27;;;;;;;19.39;59.15;101423.72;5257744;28;20388;-71
2022/10/10 11:40:50;;;;;;;10.57;3.93;;;;;;;19.40;59.90;101413.94;5254046;28;20024;-72
2022/10/10 11:43:48;;;;;;;12.37;4.93;;;;;;;19.57;59.05;101420.41;5257694;28;20061;-75
2022/10/10 11:46:28;;;;;;;8.90;4.03;;;;;;;19.44;58.06;101423.34;5253192;28;20041;-71
2022/10/10 11:49:11;;;;;;;10.17;3.80;;;;;;;19.17;58.51;101377.00;5258205;28;20025;-71
2022/10/10 11:51:54;;;;;;;9.73;3.93;;;;;;;19.30;60.06;101414.78;5265722;28;20040;-71
2022/10/10 11:54:27;;;;;;;13.70;4.50;;;;;;;19.24;59.50;101420.63;5262161;28;20033;-71
2022/10/10 11:57:04;;;;;;;12.43;4.03;;;;;;;18.86;62.06;101412.34;5272677;28;20036;-71
2022/10/10 11:59:59;;;;;;;12.20;4.73;;;;;;;19.25;59.93;101422.31;5259039;28;20052;-71
2022/10/10 12:02:35;;;;;;;8.97;3.50;;;;;;;19.08;60.21;101403.34;5259405;28;20112;-72
2022/10/10 12:05:18;;;;;;;9.17;3.83;;;;;;;19.17;59.00;101398.25;5259785;28;20388;-72
2022/10/10 12:07:52;;;;;;;17.88;4.03;;;;;;;19.41;59.14;101427.09;5274025;28;20028;-71